sensor_id;sensor_type;location;lat;lon;timestamp;P1;durP1;ratioP1;P2;durP2;ratioP2
18610;SDS011;9435;52.122;5.502;2023-11-21T00:02:26;22.65;;;10.80;;
18610;SDS011;9435;52.122;5.502;2023-11-21T00:04:53;20.17;;;9.88;;
18610;SDS011;9435;52.122;5.502;2023-11-21T00:07:20;15.90;;;8.32;;
18610;SDS011;9435;52.122;5.502;2023-11-21T00:09:47;17.40;;;9.48;;
18610;SDS011;9435;52.122;5.502;2023-11-21T00:12:14;17.60;;;9.07;;
18610;SDS011;9435;52.122;5.502;2023-11-21T00:14:42;15.40;;;8.48;;
18610;SDS011;9435;52.122;5.502;2023-11-21T00:17:09;16.48;;;8.77;;
18610;SDS011;9435;52.122;5.502;2023-11-21T00:19:37;17.88;;;9.30;;
18610;SDS011;9435;52.122;5.502;2023-11-21T00:22:04;23.38;;;9.40;;
18610;SDS011;9435;52.122;5.502;2023-11-21T00:24:32;17.08;;;9.02;;
18610;SDS011;9435;52.122;5.502;2023-11-21T00:26:59;18.45;;;9.27;;
18610;SDS011;9435;52.122;5.502;2023-11-21T00:29:26;20.58;;;10.52;;
18610;SDS011;9435;52.122;5.502;2023-11-21T00:31:54;22.30;;;10.00;;
18610;SDS011;9435;52.122;5.502;2023-11-21T00:34:21;20.70;;;9.85;;
18610;SDS011;9435;52.122;5.502;2023-11-21T00:36:49;20.60;;;10.63;;
18610;SDS011;9435;52.122;5.502;2023-11-21T00:39:16;22.48;;;10.07;;
18610;SDS011;9435;52.122;5.502;2023-11-21T00:41:43;22.48;;;9.82;;
18610;SDS011;9435;52.122;5.502;2023-11-21T00:44:11;25.58;;;10.45;;
18610;SDS011;9435;52.122;5.502;2023-11-21T00:46:38;20.95;;;10.23;;
18610;SDS011;9435;52.122;5.502;2023-11-21T00:49:05;21.35;;;10.43;;
18610;SDS011;9435;52.122;5.502;2023-11-21T00:51:32;19.95;;;9.43;;
18610;SDS011;9435;52.122;5.502;2023-11-21T00:54:01;15.13;;;8.30;;
18610;SDS011;9435;52.122;5.502;2023-11-21T00:56:28;15.82;;;8.38;;
18610;SDS011;9435;52.122;5.502;2023-11-21T00:58:55;17.40;;;9.60;;
18610;SDS011;9435;52.122;5.502;2023-11-21T01:01:23;18.05;;;9.68;;
18610;SDS011;9435;52.122;5.502;2023-11-21T01:03:50;19.65;;;10.13;;
18610;SDS011;9435;52.122;5.502;2023-11-21T01:06:17;22.75;;;10.90;;
18610;SDS011;9435;52.122;5.502;2023-11-21T01:08:44;19.45;;;10.02;;
18610;SDS011;9435;52.122;5.502;2023-11-21T01:11:13;19.17;;;10.13;;
18610;SDS011;9435;52.122;5.502;2023-11-21T01:13:40;23.17;;;11.38;;
18610;SDS011;9435;52.122;5.502;2023-11-21T01:16:08;24.88;;;11.80;;
18610;SDS011;9435;52.122;5.502;2023-11-21T01:18:35;30.77;;;12.07;;
18610;SDS011;9435;52.122;5.502;2023-11-21T01:21:03;28.23;;;12.90;;
18610;SDS011;9435;52.122;5.502;2023-11-21T01:23:30;27.95;;;12.32;;
18610;SDS011;9435;52.122;5.502;2023-11-21T01:25:57;28.40;;;12.75;;
18610;SDS011;9435;52.122;5.502;2023-11-21T01:28:26;26.70;;;12.90;;
18610;SDS011;9435;52.122;5.502;2023-11-21T01:30:53;23.60;;;11.80;;
18610;SDS011;9435;52.122;5.502;2023-11-21T01:33:21;26.48;;;12.63;;
18610;SDS011;9435;52.122;5.502;2023-11-21T01:35:50;28.52;;;13.15;;
18610;SDS011;9435;52.122;5.502;2023-11-21T01:38:20;30.10;;;14.52;;
18610;SDS011;9435;52.122;5.502;2023-11-21T01:40:47;33.92;;;14.77;;
18610;SDS011;9435;52.122;5.502;2023-11-21T01:43:14;29.63;;;13.52;;
18610;SDS011;9435;52.122;5.502;2023-11-21T01:45:43;33.90;;;14.95;;
18610;SDS011;9435;52.122;5.502;2023-11-21T01:48:12;28.77;;;13.68;;
18610;SDS011;9435;52.122;5.502;2023-11-21T01:50:41;32.15;;;14.32;;
18610;SDS011;9435;52.122;5.502;2023-11-21T01:53:10;32.95;;;14.52;;
18610;SDS011;9435;52.122;5.502;2023-11-21T01:55:39;32.65;;;14.38;;
18610;SDS011;9435;52.122;5.502;2023-11-21T01:58:07;31.67;;;15.52;;
18610;SDS011;9435;52.122;5.502;2023-11-21T02:00:34;34.08;;;15.43;;
18610;SDS011;9435;52.122;5.502;2023-11-21T02:03:07;32.33;;;14.82;;
18610;SDS011;9435;52.122;5.502;2023-11-21T02:05:35;31.95;;;14.32;;
18610;SDS011;9435;52.122;5.502;2023-11-21T02:08:03;30.33;;;14.30;;
18610;SDS011;9435;52.122;5.502;2023-11-21T02:10:30;29.42;;;14.27;;
18610;SDS011;9435;52.122;5.502;2023-11-21T02:12:58;31.48;;;14.95;;
18610;SDS011;9435;52.122;5.502;2023-11-21T02:15:27;32.58;;;14.65;;
18610;SDS011;9435;52.122;5.502;2023-11-21T02:17:55;30.17;;;14.52;;
18610;SDS011;9435;52.122;5.502;2023-11-21T02:20:24;36.55;;;15.07;;
18610;SDS011;9435;52.122;5.502;2023-11-21T02:22:55;34.15;;;15.10;;
18610;SDS011;9435;52.122;5.502;2023-11-21T02:25:24;34.60;;;15.10;;
18610;SDS011;9435;52.122;5.502;2023-11-21T02:27:52;31.63;;;14.07;;
18610;SDS011;9435;52.122;5.502;2023-11-21T02:30:20;35.05;;;14.38;;
18610;SDS011;9435;52.122;5.502;2023-11-21T02:32:48;32.83;;;15.00;;
18610;SDS011;9435;52.122;5.502;2023-11-21T02:35:15;29.98;;;14.80;;
18610;SDS011;9435;52.122;5.502;2023-11-21T02:37:42;33.67;;;14.90;;
18610;SDS011;9435;52.122;5.502;2023-11-21T02:40:12;34.25;;;15.27;;
18610;SDS011;9435;52.122;5.502;2023-11-21T02:42:42;35.05;;;14.98;;
18610;SDS011;9435;52.122;5.502;2023-11-21T02:45:10;28.83;;;14.32;;
18610;SDS011;9435;52.122;5.502;2023-11-21T02:47:38;33.38;;;15.18;;
18610;SDS011;9435;52.122;5.502;2023-11-21T02:50:05;31.38;;;15.27;;
18610;SDS011;9435;52.122;5.502;2023-11-21T02:52:33;33.42;;;15.40;;
18610;SDS011;9435;52.122;5.502;2023-11-21T02:55:00;34.13;;;14.55;;
18610;SDS011;9435;52.122;5.502;2023-11-21T02:57:29;33.72;;;15.52;;
18610;SDS011;9435;52.122;5.502;2023-11-21T02:59:56;39.65;;;16.63;;
18610;SDS011;9435;52.122;5.502;2023-11-21T03:02:25;31.88;;;14.60;;
18610;SDS011;9435;52.122;5.502;2023-11-21T03:04:52;35.78;;;16.00;;
18610;SDS011;9435;52.122;5.502;2023-11-21T03:07:19;37.38;;;15.25;;
18610;SDS011;9435;52.122;5.502;2023-11-21T03:09:46;36.38;;;15.15;;
18610;SDS011;9435;52.122;5.502;2023-11-21T03:12:14;36.47;;;16.98;;
18610;SDS011;9435;52.122;5.502;2023-11-21T03:14:42;42.33;;;17.48;;
18610;SDS011;9435;52.122;5.502;2023-11-21T03:17:09;39.05;;;16.65;;
18610;SDS011;9435;52.122;5.502;2023-11-21T03:19:36;37.55;;;15.60;;
18610;SDS011;9435;52.122;5.502;2023-11-21T03:22:03;41.70;;;16.73;;
18610;SDS011;9435;52.122;5.502;2023-11-21T03:24:30;33.72;;;15.15;;
18610;SDS011;9435;52.122;5.502;2023-11-21T03:26:57;34.92;;;16.52;;
18610;SDS011;9435;52.122;5.502;2023-11-21T03:29:25;38.28;;;15.73;;
18610;SDS011;9435;52.122;5.502;2023-11-21T03:31:53;33.67;;;15.55;;
18610;SDS011;9435;52.122;5.502;2023-11-21T03:34:23;33.63;;;16.02;;
18610;SDS011;9435;52.122;5.502;2023-11-21T03:36:50;37.67;;;15.57;;
18610;SDS011;9435;52.122;5.502;2023-11-21T03:39:18;36.05;;;14.90;;
18610;SDS011;9435;52.122;5.502;2023-11-21T03:41:46;39.17;;;15.95;;
18610;SDS011;9435;52.122;5.502;2023-11-21T03:44:13;36.42;;;15.02;;
18610;SDS011;9435;52.122;5.502;2023-11-21T03:46:40;33.08;;;14.07;;
18610;SDS011;9435;52.122;5.502;2023-11-21T03:49:09;34.90;;;15.05;;
18610;SDS011;9435;52.122;5.502;2023-11-21T03:51:37;39.25;;;15.45;;
18610;SDS011;9435;52.122;5.502;2023-11-21T03:54:04;32.85;;;14.95;;
18610;SDS011;9435;52.122;5.502;2023-11-21T03:56:31;32.10;;;15.10;;
18610;SDS011;9435;52.122;5.502;2023-11-21T03:58:58;31.27;;;14.25;;
18610;SDS011;9435;52.122;5.502;2023-11-21T04:01:25;38.92;;;15.25;;
18610;SDS011;9435;52.122;5.502;2023-11-21T04:03:52;32.47;;;14.68;;
18610;SDS011;9435;52.122;5.502;2023-11-21T04:06:20;34.35;;;15.05;;
18610;SDS011;9435;52.122;5.502;2023-11-21T04:08:47;33.22;;;14.73;;
18610;SDS011;9435;52.122;5.502;2023-11-21T04:11:15;32.33;;;15.27;;
18610;SDS011;9435;52.122;5.502;2023-11-21T04:13:42;39.10;;;15.77;;
18610;SDS011;9435;52.122;5.502;2023-11-21T04:16:09;33.13;;;15.32;;
18610;SDS011;9435;52.122;5.502;2023-11-21T04:18:38;35.20;;;15.32;;
18610;SDS011;9435;52.122;5.502;2023-11-21T04:21:06;36.63;;;16.33;;
18610;SDS011;9435;52.122;5.502;2023-11-21T04:23:35;44.40;;;17.25;;
18610;SDS011;9435;52.122;5.502;2023-11-21T04:26:02;39.05;;;16.17;;
18610;SDS011;9435;52.122;5.502;2023-11-21T04:28:29;40.22;;;17.70;;
18610;SDS011;9435;52.122;5.502;2023-11-21T04:30:56;42.15;;;16.83;;
18610;SDS011;9435;52.122;5.502;2023-11-21T04:33:23;40.50;;;17.27;;
18610;SDS011;9435;52.122;5.502;2023-11-21T04:35:51;39.08;;;17.67;;
18610;SDS011;9435;52.122;5.502;2023-11-21T04:38:18;45.10;;;17.50;;
18610;SDS011;9435;52.122;5.502;2023-11-21T04:40:46;40.33;;;17.60;;
18610;SDS011;9435;52.122;5.502;2023-11-21T04:43:13;35.92;;;16.77;;
18610;SDS011;9435;52.122;5.502;2023-11-21T04:45:40;40.60;;;18.02;;
18610;SDS011;9435;52.122;5.502;2023-11-21T04:48:07;44.85;;;18.40;;
18610;SDS011;9435;52.122;5.502;2023-11-21T04:50:36;52.47;;;19.83;;
18610;SDS011;9435;52.122;5.502;2023-11-21T04:53:03;50.13;;;19.40;;
18610;SDS011;9435;52.122;5.502;2023-11-21T04:55:31;49.95;;;20.83;;
18610;SDS011;9435;52.122;5.502;2023-11-21T04:57:59;46.58;;;19.58;;
18610;SDS011;9435;52.122;5.502;2023-11-21T05:00:27;50.15;;;19.50;;
18610;SDS011;9435;52.122;5.502;2023-11-21T05:02:54;48.33;;;20.88;;
18610;SDS011;9435;52.122;5.502;2023-11-21T05:05:21;63.08;;;22.05;;
18610;SDS011;9435;52.122;5.502;2023-11-21T05:07:48;61.25;;;21.02;;
18610;SDS011;9435;52.122;5.502;2023-11-21T05:10:15;52.30;;;21.67;;
18610;SDS011;9435;52.122;5.502;2023-11-21T05:12:42;56.90;;;21.80;;
18610;SDS011;9435;52.122;5.502;2023-11-21T05:15:12;51.75;;;21.27;;
18610;SDS011;9435;52.122;5.502;2023-11-21T05:17:41;50.17;;;21.38;;
18610;SDS011;9435;52.122;5.502;2023-11-21T05:20:09;58.55;;;21.52;;
18610;SDS011;9435;52.122;5.502;2023-11-21T05:22:43;49.45;;;20.73;;
18610;SDS011;9435;52.122;5.502;2023-11-21T05:25:11;50.50;;;20.98;;
18610;SDS011;9435;52.122;5.502;2023-11-21T05:27:38;48.15;;;18.98;;
18610;SDS011;9435;52.122;5.502;2023-11-21T05:30:06;52.75;;;21.25;;
18610;SDS011;9435;52.122;5.502;2023-11-21T05:32:36;53.40;;;20.80;;
18610;SDS011;9435;52.122;5.502;2023-11-21T05:35:03;50.40;;;20.58;;
18610;SDS011;9435;52.122;5.502;2023-11-21T05:37:34;50.97;;;19.58;;
18610;SDS011;9435;52.122;5.502;2023-11-21T05:40:04;48.85;;;19.00;;
18610;SDS011;9435;52.122;5.502;2023-11-21T05:42:32;50.33;;;19.13;;
18610;SDS011;9435;52.122;5.502;2023-11-21T05:45:00;58.80;;;21.23;;
18610;SDS011;9435;52.122;5.502;2023-11-21T05:47:36;53.67;;;21.27;;
18610;SDS011;9435;52.122;5.502;2023-11-21T05:50:06;47.08;;;18.63;;
18610;SDS011;9435;52.122;5.502;2023-11-21T05:52:39;59.95;;;21.52;;
18610;SDS011;9435;52.122;5.502;2023-11-21T05:55:07;55.08;;;21.17;;
18610;SDS011;9435;52.122;5.502;2023-11-21T05:57:35;52.47;;;21.75;;
18610;SDS011;9435;52.122;5.502;2023-11-21T06:00:03;48.65;;;20.20;;
18610;SDS011;9435;52.122;5.502;2023-11-21T06:02:38;57.47;;;21.38;;
18610;SDS011;9435;52.122;5.502;2023-11-21T06:05:06;47.67;;;19.27;;
18610;SDS011;9435;52.122;5.502;2023-11-21T06:07:34;52.00;;;19.45;;
18610;SDS011;9435;52.122;5.502;2023-11-21T06:10:02;51.95;;;20.73;;
18610;SDS011;9435;52.122;5.502;2023-11-21T06:12:31;50.58;;;19.63;;
18610;SDS011;9435;52.122;5.502;2023-11-21T06:15:01;54.45;;;21.40;;
18610;SDS011;9435;52.122;5.502;2023-11-21T06:17:30;49.20;;;18.92;;
18610;SDS011;9435;52.122;5.502;2023-11-21T06:19:59;45.95;;;19.23;;
18610;SDS011;9435;52.122;5.502;2023-11-21T06:22:28;48.90;;;20.85;;
18610;SDS011;9435;52.122;5.502;2023-11-21T06:24:56;46.40;;;19.10;;
18610;SDS011;9435;52.122;5.502;2023-11-21T06:27:23;52.00;;;19.70;;
18610;SDS011;9435;52.122;5.502;2023-11-21T06:29:50;49.35;;;19.92;;
18610;SDS011;9435;52.122;5.502;2023-11-21T06:32:17;46.08;;;19.52;;
18610;SDS011;9435;52.122;5.502;2023-11-21T06:34:45;53.10;;;21.05;;
18610;SDS011;9435;52.122;5.502;2023-11-21T06:37:14;53.63;;;19.77;;
18610;SDS011;9435;52.122;5.502;2023-11-21T06:39:42;47.22;;;19.23;;
18610;SDS011;9435;52.122;5.502;2023-11-21T06:42:09;45.22;;;19.23;;
18610;SDS011;9435;52.122;5.502;2023-11-21T06:44:40;46.90;;;19.55;;
18610;SDS011;9435;52.122;5.502;2023-11-21T06:47:09;48.05;;;19.40;;
18610;SDS011;9435;52.122;5.502;2023-11-21T06:49:36;52.38;;;20.05;;
18610;SDS011;9435;52.122;5.502;2023-11-21T06:52:04;43.15;;;18.20;;
18610;SDS011;9435;52.122;5.502;2023-11-21T06:54:33;48.25;;;18.60;;
18610;SDS011;9435;52.122;5.502;2023-11-21T06:57:00;45.65;;;19.10;;
18610;SDS011;9435;52.122;5.502;2023-11-21T06:59:28;46.55;;;18.45;;
18610;SDS011;9435;52.122;5.502;2023-11-21T07:01:55;45.40;;;18.50;;
18610;SDS011;9435;52.122;5.502;2023-11-21T07:04:22;44.97;;;17.80;;
18610;SDS011;9435;52.122;5.502;2023-11-21T07:06:50;47.45;;;19.17;;
18610;SDS011;9435;52.122;5.502;2023-11-21T07:09:17;39.65;;;17.38;;
18610;SDS011;9435;52.122;5.502;2023-11-21T07:11:48;43.58;;;18.48;;
18610;SDS011;9435;52.122;5.502;2023-11-21T07:14:15;50.00;;;18.58;;
18610;SDS011;9435;52.122;5.502;2023-11-21T07:16:44;48.80;;;17.48;;
18610;SDS011;9435;52.122;5.502;2023-11-21T07:19:12;47.53;;;18.92;;
18610;SDS011;9435;52.122;5.502;2023-11-21T07:21:40;43.67;;;17.25;;
18610;SDS011;9435;52.122;5.502;2023-11-21T07:24:08;41.95;;;18.08;;
18610;SDS011;9435;52.122;5.502;2023-11-21T07:26:36;41.95;;;17.30;;
18610;SDS011;9435;52.122;5.502;2023-11-21T07:29:05;42.33;;;17.42;;
18610;SDS011;9435;52.122;5.502;2023-11-21T07:31:33;43.88;;;17.45;;
18610;SDS011;9435;52.122;5.502;2023-11-21T07:34:00;40.75;;;16.67;;
18610;SDS011;9435;52.122;5.502;2023-11-21T07:36:28;45.47;;;17.50;;
18610;SDS011;9435;52.122;5.502;2023-11-21T07:38:57;46.70;;;17.00;;
18610;SDS011;9435;52.122;5.502;2023-11-21T07:41:24;46.10;;;16.90;;
18610;SDS011;9435;52.122;5.502;2023-11-21T07:43:51;41.03;;;15.80;;
18610;SDS011;9435;52.122;5.502;2023-11-21T07:46:20;39.45;;;16.50;;
18610;SDS011;9435;52.122;5.502;2023-11-21T07:48:47;39.15;;;15.90;;
18610;SDS011;9435;52.122;5.502;2023-11-21T07:51:14;36.22;;;15.05;;
18610;SDS011;9435;52.122;5.502;2023-11-21T07:53:42;36.25;;;15.10;;
18610;SDS011;9435;52.122;5.502;2023-11-21T07:56:09;33.80;;;14.98;;
18610;SDS011;9435;52.122;5.502;2023-11-21T07:58:38;35.22;;;14.40;;
18610;SDS011;9435;52.122;5.502;2023-11-21T08:01:05;41.75;;;16.00;;
18610;SDS011;9435;52.122;5.502;2023-11-21T08:03:34;34.88;;;15.02;;
18610;SDS011;9435;52.122;5.502;2023-11-21T08:06:01;46.63;;;16.60;;
18610;SDS011;9435;52.122;5.502;2023-11-21T08:08:30;37.90;;;16.50;;
18610;SDS011;9435;52.122;5.502;2023-11-21T08:10:58;38.80;;;16.27;;
18610;SDS011;9435;52.122;5.502;2023-11-21T08:13:27;40.65;;;15.52;;
18610;SDS011;9435;52.122;5.502;2023-11-21T08:15:55;40.17;;;15.73;;
18610;SDS011;9435;52.122;5.502;2023-11-21T08:18:26;37.17;;;15.00;;
18610;SDS011;9435;52.122;5.502;2023-11-21T08:20:55;35.13;;;15.00;;
18610;SDS011;9435;52.122;5.502;2023-11-21T08:23:22;38.30;;;14.70;;
18610;SDS011;9435;52.122;5.502;2023-11-21T08:25:50;43.38;;;15.57;;
18610;SDS011;9435;52.122;5.502;2023-11-21T08:28:18;44.05;;;16.05;;
18610;SDS011;9435;52.122;5.502;2023-11-21T08:30:48;37.15;;;15.45;;
18610;SDS011;9435;52.122;5.502;2023-11-21T08:33:15;40.40;;;15.48;;
18610;SDS011;9435;52.122;5.502;2023-11-21T08:35:42;43.72;;;14.93;;
18610;SDS011;9435;52.122;5.502;2023-11-21T08:38:12;40.08;;;14.32;;
18610;SDS011;9435;52.122;5.502;2023-11-21T08:40:39;43.22;;;14.60;;
18610;SDS011;9435;52.122;5.502;2023-11-21T08:43:06;38.88;;;13.80;;
18610;SDS011;9435;52.122;5.502;2023-11-21T08:45:34;44.42;;;14.75;;
18610;SDS011;9435;52.122;5.502;2023-11-21T08:48:01;48.40;;;15.27;;
18610;SDS011;9435;52.122;5.502;2023-11-21T08:50:28;51.33;;;16.35;;
18610;SDS011;9435;52.122;5.502;2023-11-21T08:52:55;49.00;;;16.00;;
18610;SDS011;9435;52.122;5.502;2023-11-21T08:55:24;48.38;;;15.82;;
18610;SDS011;9435;52.122;5.502;2023-11-21T08:57:51;48.90;;;16.08;;
18610;SDS011;9435;52.122;5.502;2023-11-21T09:00:18;54.28;;;18.33;;
18610;SDS011;9435;52.122;5.502;2023-11-21T09:02:45;60.75;;;18.27;;
18610;SDS011;9435;52.122;5.502;2023-11-21T09:05:13;70.22;;;21.00;;
18610;SDS011;9435;52.122;5.502;2023-11-21T09:07:42;62.95;;;21.40;;
18610;SDS011;9435;52.122;5.502;2023-11-21T09:10:11;63.72;;;22.92;;
18610;SDS011;9435;52.122;5.502;2023-11-21T09:12:41;66.60;;;22.55;;
18610;SDS011;9435;52.122;5.502;2023-11-21T09:15:09;67.45;;;22.90;;
18610;SDS011;9435;52.122;5.502;2023-11-21T09:17:36;73.45;;;23.02;;
18610;SDS011;9435;52.122;5.502;2023-11-21T09:20:05;65.57;;;22.02;;
18610;SDS011;9435;52.122;5.502;2023-11-21T09:22:35;69.93;;;22.52;;
18610;SDS011;9435;52.122;5.502;2023-11-21T09:25:02;71.03;;;21.25;;
18610;SDS011;9435;52.122;5.502;2023-11-21T09:27:31;62.72;;;21.38;;
18610;SDS011;9435;52.122;5.502;2023-11-21T09:29:59;60.90;;;20.67;;
18610;SDS011;9435;52.122;5.502;2023-11-21T09:32:26;64.22;;;21.23;;
18610;SDS011;9435;52.122;5.502;2023-11-21T09:34:55;58.85;;;20.60;;
18610;SDS011;9435;52.122;5.502;2023-11-21T09:37:23;62.03;;;20.13;;
18610;SDS011;9435;52.122;5.502;2023-11-21T09:39:52;60.05;;;19.65;;
18610;SDS011;9435;52.122;5.502;2023-11-21T09:42:23;58.17;;;19.60;;
18610;SDS011;9435;52.122;5.502;2023-11-21T09:44:54;59.20;;;20.48;;
18610;SDS011;9435;52.122;5.502;2023-11-21T09:47:28;53.70;;;21.05;;
18610;SDS011;9435;52.122;5.502;2023-11-21T09:49:55;60.65;;;23.08;;
18610;SDS011;9435;52.122;5.502;2023-11-21T09:52:28;55.35;;;22.38;;
18610;SDS011;9435;52.122;5.502;2023-11-21T09:54:55;55.50;;;22.58;;
18610;SDS011;9435;52.122;5.502;2023-11-21T09:57:23;48.65;;;19.55;;
18610;SDS011;9435;52.122;5.502;2023-11-21T09:59:51;44.30;;;17.90;;
18610;SDS011;9435;52.122;5.502;2023-11-21T10:02:22;42.90;;;17.38;;
18610;SDS011;9435;52.122;5.502;2023-11-21T10:04:55;41.13;;;16.40;;
18610;SDS011;9435;52.122;5.502;2023-11-21T10:07:22;44.47;;;16.98;;
18610;SDS011;9435;52.122;5.502;2023-11-21T10:09:49;36.13;;;15.13;;
18610;SDS011;9435;52.122;5.502;2023-11-21T10:12:17;36.60;;;16.23;;
18610;SDS011;9435;52.122;5.502;2023-11-21T10:14:47;39.40;;;16.05;;
18610;SDS011;9435;52.122;5.502;2023-11-21T10:17:17;34.90;;;15.23;;
18610;SDS011;9435;52.122;5.502;2023-11-21T10:19:46;34.05;;;15.00;;
18610;SDS011;9435;52.122;5.502;2023-11-21T10:22:15;36.60;;;15.15;;
18610;SDS011;9435;52.122;5.502;2023-11-21T10:24:42;35.05;;;14.98;;
18610;SDS011;9435;52.122;5.502;2023-11-21T10:27:09;32.15;;;14.25;;
18610;SDS011;9435;52.122;5.502;2023-11-21T10:29:38;32.53;;;14.75;;
18610;SDS011;9435;52.122;5.502;2023-11-21T10:32:07;36.15;;;14.85;;
18610;SDS011;9435;52.122;5.502;2023-11-21T10:34:35;31.00;;;14.05;;
18610;SDS011;9435;52.122;5.502;2023-11-21T10:37:10;33.67;;;14.95;;
18610;SDS011;9435;52.122;5.502;2023-11-21T10:39:39;30.17;;;13.13;;
18610;SDS011;9435;52.122;5.502;2023-11-21T10:42:09;32.78;;;12.93;;
18610;SDS011;9435;52.122;5.502;2023-11-21T10:44:36;29.27;;;12.02;;
18610;SDS011;9435;52.122;5.502;2023-11-21T10:47:03;29.13;;;12.27;;
18610;SDS011;9435;52.122;5.502;2023-11-21T10:49:30;26.08;;;11.68;;
18610;SDS011;9435;52.122;5.502;2023-11-21T10:51:57;26.45;;;12.05;;
18610;SDS011;9435;52.122;5.502;2023-11-21T10:54:25;26.23;;;11.63;;
18610;SDS011;9435;52.122;5.502;2023-11-21T10:56:56;25.70;;;10.90;;
18610;SDS011;9435;52.122;5.502;2023-11-21T10:59:26;26.88;;;11.57;;
18610;SDS011;9435;52.122;5.502;2023-11-21T11:01:57;25.85;;;10.95;;
18610;SDS011;9435;52.122;5.502;2023-11-21T11:04:27;26.55;;;11.77;;
18610;SDS011;9435;52.122;5.502;2023-11-21T11:06:54;27.63;;;11.88;;
18610;SDS011;9435;52.122;5.502;2023-11-21T11:09:23;30.38;;;11.80;;
18610;SDS011;9435;52.122;5.502;2023-11-21T11:11:50;33.47;;;12.88;;
18610;SDS011;9435;52.122;5.502;2023-11-21T11:14:20;31.17;;;13.07;;
18610;SDS011;9435;52.122;5.502;2023-11-21T11:16:52;34.28;;;13.82;;
18610;SDS011;9435;52.122;5.502;2023-11-21T11:19:21;35.00;;;13.75;;
18610;SDS011;9435;52.122;5.502;2023-11-21T11:21:51;38.55;;;15.02;;
18610;SDS011;9435;52.122;5.502;2023-11-21T11:24:33;38.70;;;14.68;;
18610;SDS011;9435;52.122;5.502;2023-11-21T11:27:18;36.60;;;14.73;;
18610;SDS011;9435;52.122;5.502;2023-11-21T11:30:03;38.25;;;14.57;;
18610;SDS011;9435;52.122;5.502;2023-11-21T11:32:40;34.08;;;13.88;;
18610;SDS011;9435;52.122;5.502;2023-11-21T11:35:17;37.65;;;15.18;;
18610;SDS011;9435;52.122;5.502;2023-11-21T11:37:50;36.55;;;15.13;;
18610;SDS011;9435;52.122;5.502;2023-11-21T11:40:18;34.65;;;14.48;;
18610;SDS011;9435;52.122;5.502;2023-11-21T11:42:56;36.10;;;14.48;;
18610;SDS011;9435;52.122;5.502;2023-11-21T11:45:25;34.85;;;14.95;;
18610;SDS011;9435;52.122;5.502;2023-11-21T11:47:59;37.25;;;16.30;;
18610;SDS011;9435;52.122;5.502;2023-11-21T11:50:27;39.28;;;16.70;;
18610;SDS011;9435;52.122;5.502;2023-11-21T11:52:54;39.08;;;16.85;;
18610;SDS011;9435;52.122;5.502;2023-11-21T11:55:37;44.28;;;17.35;;
18610;SDS011;9435;52.122;5.502;2023-11-21T11:58:05;44.42;;;18.85;;
18610;SDS011;9435;52.122;5.502;2023-11-21T12:00:35;52.28;;;20.17;;
18610;SDS011;9435;52.122;5.502;2023-11-21T12:03:05;50.83;;;20.70;;
18610;SDS011;9435;52.122;5.502;2023-11-21T12:05:34;46.58;;;19.60;;
18610;SDS011;9435;52.122;5.502;2023-11-21T12:08:04;41.63;;;17.63;;
18610;SDS011;9435;52.122;5.502;2023-11-21T12:10:33;46.80;;;17.75;;
18610;SDS011;9435;52.122;5.502;2023-11-21T12:13:02;43.75;;;17.85;;
18610;SDS011;9435;52.122;5.502;2023-11-21T12:15:32;43.95;;;17.65;;
18610;SDS011;9435;52.122;5.502;2023-11-21T12:18:02;43.40;;;17.20;;
18610;SDS011;9435;52.122;5.502;2023-11-21T12:20:30;41.53;;;16.30;;
18610;SDS011;9435;52.122;5.502;2023-11-21T12:23:03;37.33;;;16.23;;
18610;SDS011;9435;52.122;5.502;2023-11-21T12:25:31;38.35;;;16.55;;
18610;SDS011;9435;52.122;5.502;2023-11-21T12:27:59;43.92;;;16.65;;
18610;SDS011;9435;52.122;5.502;2023-11-21T12:30:28;45.15;;;18.27;;
18610;SDS011;9435;52.122;5.502;2023-11-21T12:32:59;45.20;;;18.30;;
18610;SDS011;9435;52.122;5.502;2023-11-21T12:35:27;45.05;;;18.45;;
18610;SDS011;9435;52.122;5.502;2023-11-21T12:37:56;48.10;;;18.58;;
18610;SDS011;9435;52.122;5.502;2023-11-21T12:40:24;47.38;;;17.77;;
18610;SDS011;9435;52.122;5.502;2023-11-21T12:42:52;45.50;;;17.65;;
18610;SDS011;9435;52.122;5.502;2023-11-21T12:45:21;43.47;;;17.35;;
18610;SDS011;9435;52.122;5.502;2023-11-21T12:47:51;41.47;;;17.23;;
18610;SDS011;9435;52.122;5.502;2023-11-21T12:50:23;40.20;;;16.08;;
18610;SDS011;9435;52.122;5.502;2023-11-21T12:52:54;44.03;;;16.42;;
18610;SDS011;9435;52.122;5.502;2023-11-21T12:55:25;39.42;;;16.88;;
18610;SDS011;9435;52.122;5.502;2023-11-21T12:57:52;31.80;;;14.43;;
18610;SDS011;9435;52.122;5.502;2023-11-21T13:00:27;33.50;;;14.95;;
18610;SDS011;9435;52.122;5.502;2023-11-21T13:02:55;36.33;;;14.40;;
18610;SDS011;9435;52.122;5.502;2023-11-21T13:05:25;31.60;;;13.93;;
18610;SDS011;9435;52.122;5.502;2023-11-21T13:07:53;31.55;;;13.15;;
18610;SDS011;9435;52.122;5.502;2023-11-21T13:10:23;28.63;;;12.55;;
18610;SDS011;9435;52.122;5.502;2023-11-21T13:12:52;27.73;;;12.30;;
18610;SDS011;9435;52.122;5.502;2023-11-21T13:15:20;27.38;;;12.20;;
18610;SDS011;9435;52.122;5.502;2023-11-21T13:17:47;23.65;;;11.02;;
18610;SDS011;9435;52.122;5.502;2023-11-21T13:20:16;28.85;;;12.20;;
18610;SDS011;9435;52.122;5.502;2023-11-21T13:22:50;27.40;;;11.70;;
18610;SDS011;9435;52.122;5.502;2023-11-21T13:25:20;28.50;;;11.70;;
18610;SDS011;9435;52.122;5.502;2023-11-21T13:27:47;26.73;;;11.55;;
18610;SDS011;9435;52.122;5.502;2023-11-21T13:30:15;23.45;;;10.40;;
18610;SDS011;9435;52.122;5.502;2023-11-21T13:32:46;19.92;;;9.27;;
18610;SDS011;9435;52.122;5.502;2023-11-21T13:35:16;19.00;;;8.07;;
18610;SDS011;9435;52.122;5.502;2023-11-21T13:37:52;16.20;;;7.90;;
18610;SDS011;9435;52.122;5.502;2023-11-21T13:40:21;14.70;;;7.00;;
18610;SDS011;9435;52.122;5.502;2023-11-21T13:42:51;14.48;;;6.53;;
18610;SDS011;9435;52.122;5.502;2023-11-21T13:45:20;12.13;;;5.20;;
18610;SDS011;9435;52.122;5.502;2023-11-21T13:47:49;14.40;;;5.07;;
18610;SDS011;9435;52.122;5.502;2023-11-21T13:50:23;12.95;;;5.50;;
18610;SDS011;9435;52.122;5.502;2023-11-21T13:52:56;14.52;;;5.88;;
18610;SDS011;9435;52.122;5.502;2023-11-21T13:55:28;19.23;;;7.82;;
18610;SDS011;9435;52.122;5.502;2023-11-21T13:57:55;19.60;;;8.27;;
18610;SDS011;9435;52.122;5.502;2023-11-21T14:00:22;20.80;;;8.10;;
18610;SDS011;9435;52.122;5.502;2023-11-21T14:03:10;23.48;;;9.75;;
18610;SDS011;9435;52.122;5.502;2023-11-21T14:05:44;27.15;;;11.05;;
18610;SDS011;9435;52.122;5.502;2023-11-21T14:08:17;34.38;;;13.07;;
18610;SDS011;9435;52.122;5.502;2023-11-21T14:10:46;32.40;;;11.80;;
18610;SDS011;9435;52.122;5.502;2023-11-21T14:13:16;32.00;;;12.18;;
18610;SDS011;9435;52.122;5.502;2023-11-21T14:15:44;33.35;;;12.23;;
18610;SDS011;9435;52.122;5.502;2023-11-21T14:18:16;34.40;;;13.60;;
18610;SDS011;9435;52.122;5.502;2023-11-21T14:20:51;32.67;;;13.05;;
18610;SDS011;9435;52.122;5.502;2023-11-21T14:23:20;36.03;;;13.77;;
18610;SDS011;9435;52.122;5.502;2023-11-21T14:25:48;35.80;;;13.68;;
18610;SDS011;9435;52.122;5.502;2023-11-21T14:28:17;37.58;;;13.90;;
18610;SDS011;9435;52.122;5.502;2023-11-21T14:30:44;40.70;;;15.90;;
18610;SDS011;9435;52.122;5.502;2023-11-21T14:33:12;34.60;;;14.35;;
18610;SDS011;9435;52.122;5.502;2023-11-21T14:35:41;38.22;;;14.38;;
18610;SDS011;9435;52.122;5.502;2023-11-21T14:38:08;41.10;;;15.25;;
18610;SDS011;9435;52.122;5.502;2023-11-21T14:40:37;35.58;;;14.38;;
18610;SDS011;9435;52.122;5.502;2023-11-21T14:43:04;40.08;;;15.10;;
18610;SDS011;9435;52.122;5.502;2023-11-21T14:45:31;38.13;;;15.07;;